createdAt,value
2023-02-13T00:00:16.363Z,-0.97
2023-02-13T00:01:16.253Z,-1.01
2023-02-13T00:02:16.178Z,-1.01
2023-02-13T00:03:16.093Z,-1.05
2023-02-13T00:04:15.902Z,-1.10
2023-02-13T00:05:15.765Z,-1.11
2023-02-13T00:06:15.642Z,-1.13
2023-02-13T00:07:15.519Z,-1.11
2023-02-13T00:08:15.391Z,-1.13
2023-02-13T00:09:15.293Z,-1.21
2023-02-13T00:10:15.173Z,-1.10
2023-02-13T00:11:15.041Z,-1.22
2023-02-13T00:12:14.925Z,-1.21
2023-02-13T00:13:14.805Z,-1.19
2023-02-13T00:14:14.687Z,-1.18
2023-02-13T00:15:14.551Z,-1.22
2023-02-13T00:16:14.441Z,-1.23
2023-02-13T00:17:14.295Z,-1.21
2023-02-13T00:18:14.177Z,-1.25
2023-02-13T00:19:14.055Z,-1.26
2023-02-13T00:20:13.937Z,-1.22
2023-02-13T00:21:13.838Z,-1.36
2023-02-13T00:22:13.698Z,-1.23
2023-02-13T00:23:13.596Z,-1.31
2023-02-13T00:24:13.459Z,-1.33
2023-02-13T00:25:13.355Z,-1.33
2023-02-13T00:26:13.243Z,-1.29
2023-02-13T00:27:13.119Z,-1.37
2023-02-13T00:28:13.015Z,-1.36
2023-02-13T00:29:12.884Z,-1.29
2023-02-13T00:30:12.781Z,-1.39
2023-02-13T00:31:12.719Z,-1.34
2023-02-13T00:32:12.698Z,-1.37
2023-02-13T00:33:12.432Z,-1.37
2023-02-13T00:34:12.324Z,-1.33
2023-02-13T00:35:12.236Z,-1.39
2023-02-13T00:36:12.105Z,-1.37
2023-02-13T00:37:11.995Z,-1.40
2023-02-13T00:38:11.881Z,-1.43
2023-02-13T00:39:11.774Z,-1.39
2023-02-13T00:40:11.662Z,-1.40
2023-02-13T00:41:11.550Z,-1.41
2023-02-13T00:42:11.421Z,-1.44
2023-02-13T00:43:11.300Z,-1.43
2023-02-13T00:44:11.209Z,-1.41
2023-02-13T00:45:11.091Z,-1.44
2023-02-13T00:46:10.976Z,-1.40
2023-02-13T00:47:10.850Z,-1.43
2023-02-13T00:48:10.730Z,-1.40
2023-02-13T00:49:10.617Z,-1.43
2023-02-13T00:50:10.501Z,-1.40
2023-02-13T00:51:10.396Z,-1.44
2023-02-13T00:52:10.259Z,-1.49
2023-02-13T00:53:10.169Z,-1.46
2023-02-13T00:54:10.044Z,-1.55
2023-02-13T00:55:09.942Z,-1.58
2023-02-13T00:56:09.814Z,-1.65
2023-02-13T00:57:09.706Z,-1.62
2023-02-13T00:58:09.688Z,-1.62
2023-02-13T00:59:09.468Z,-1.59
2023-02-13T01:00:09.364Z,-1.64
2023-02-13T01:01:09.237Z,-1.62
2023-02-13T01:02:09.115Z,-1.59
2023-02-13T01:03:09.024Z,-1.58
2023-02-13T01:04:08.906Z,-1.57
2023-02-13T01:05:08.795Z,-1.64
2023-02-13T01:06:08.682Z,-1.57
2023-02-13T01:07:08.571Z,-1.65
2023-02-13T01:08:08.448Z,-1.62
2023-02-13T01:09:08.378Z,-1.61
2023-02-13T01:10:08.238Z,-1.65
2023-02-13T01:11:08.129Z,-1.69
2023-02-13T01:12:08.017Z,-1.72
2023-02-13T01:13:07.903Z,-1.67
2023-02-13T01:14:07.807Z,-1.73
2023-02-13T01:15:07.721Z,-1.72
2023-02-13T01:16:07.651Z,-1.70
2023-02-13T01:17:07.476Z,-1.72
2023-02-13T01:18:07.371Z,-1.69
2023-02-13T01:19:07.269Z,-1.70
2023-02-13T01:20:07.157Z,-1.69
2023-02-13T01:21:07.079Z,-1.67
2023-02-13T01:22:06.924Z,-1.65
2023-02-13T01:23:06.824Z,-1.62
2023-02-13T01:24:06.704Z,-1.69
2023-02-13T01:25:06.612Z,-1.73
2023-02-13T01:26:06.501Z,-1.72
2023-02-13T01:27:06.385Z,-1.72
2023-02-13T01:28:06.286Z,-1.75
2023-02-13T01:29:06.165Z,-1.79
2023-02-13T01:30:06.067Z,-1.78
2023-02-13T01:31:06.006Z,-1.73
2023-02-13T01:32:05.867Z,-1.76
2023-02-13T01:33:05.733Z,-1.73
2023-02-13T01:34:05.601Z,-1.82
2023-02-13T01:35:05.520Z,-1.76
2023-02-13T01:36:05.386Z,-1.79
2023-02-13T01:37:05.263Z,-1.85
2023-02-13T01:38:05.162Z,-1.82
2023-02-13T01:39:05.067Z,-1.79
2023-02-13T01:40:04.931Z,-1.85
2023-02-13T01:41:04.831Z,-1.83
2023-02-13T01:42:04.693Z,-1.86
2023-02-13T01:43:04.598Z,-1.88
2023-02-13T01:44:04.486Z,-1.83
2023-02-13T01:45:04.371Z,-1.82
2023-02-13T01:46:04.248Z,-1.82
2023-02-13T01:47:04.170Z,-1.75
2023-02-13T01:48:05.814Z,-1.75
2023-02-13T01:49:03.935Z,-1.82
2023-02-13T01:50:03.838Z,-1.82
2023-02-13T01:51:03.711Z,-1.82
2023-02-13T01:52:03.598Z,-1.79
2023-02-13T01:53:03.492Z,-1.83
2023-02-13T01:54:03.385Z,-1.79
2023-02-13T01:55:03.274Z,-1.82
2023-02-13T01:56:03.160Z,-1.82
2023-02-13T01:57:03.053Z,-1.80
2023-02-13T01:58:02.940Z,-1.80
2023-02-13T01:59:02.810Z,-1.83
2023-02-13T02:00:02.721Z,-1.78
2023-02-13T02:01:02.602Z,-1.88
2023-02-13T02:02:02.583Z,-1.86
2023-02-13T02:03:02.375Z,-1.88
2023-02-13T02:04:02.261Z,-1.88
2023-02-13T02:05:02.160Z,-1.88
2023-02-13T02:06:02.053Z,-1.93
2023-02-13T02:07:01.933Z,-1.86
2023-02-13T02:08:01.831Z,-1.96
2023-02-13T02:09:01.714Z,-1.96
2023-02-13T02:10:01.612Z,-1.91
2023-02-13T02:11:01.484Z,-1.88
2023-02-13T02:12:01.364Z,-1.91
2023-02-13T02:13:01.250Z,-1.93
2023-02-13T02:14:01.155Z,-1.91
2023-02-13T02:15:01.019Z,-1.91
2023-02-13T02:16:00.953Z,-1.83
2023-02-13T02:17:00.788Z,-1.86
2023-02-13T02:18:00.701Z,-1.86
2023-02-13T02:19:00.558Z,-1.90
2023-02-13T02:20:00.480Z,-1.96
2023-02-13T02:21:00.359Z,-1.90
2023-02-13T02:22:00.229Z,-1.90
2023-02-13T02:23:00.126Z,-1.90
2023-02-13T02:24:00.011Z,-1.93
2023-02-13T02:24:59.902Z,-1.93
2023-02-13T02:25:59.783Z,-1.94
2023-02-13T02:26:59.689Z,-1.97
2023-02-13T02:27:59.590Z,-1.94
2023-02-13T02:28:59.441Z,-1.98
2023-02-13T02:29:59.343Z,-1.97
2023-02-13T02:30:59.593Z,-1.98
2023-02-13T02:31:59.163Z,-2.03
2023-02-13T02:32:59.003Z,-2.00
2023-02-13T02:33:58.882Z,-1.98
2023-02-13T02:34:58.786Z,-2.09
2023-02-13T02:35:58.656Z,-2.04
2023-02-13T02:36:58.549Z,-2.09
2023-02-13T02:37:58.432Z,-2.11
2023-02-13T02:38:58.321Z,-2.15
2023-02-13T02:39:58.214Z,-2.01
2023-02-13T02:40:58.495Z,-2.12
2023-02-13T02:41:57.990Z,-2.16
2023-02-13T02:42:57.880Z,-2.15
2023-02-13T02:43:57.763Z,-2.16
2023-02-13T02:44:57.692Z,-2.15
2023-02-13T02:45:57.537Z,-2.15
2023-02-13T02:46:57.534Z,-2.11
2023-02-13T02:47:57.322Z,-2.14
2023-02-13T02:48:57.212Z,-2.15
2023-02-13T02:49:57.125Z,-2.14
2023-02-13T02:50:57.230Z,-2.14
2023-02-13T02:51:56.882Z,-2.18
2023-02-13T02:52:56.781Z,-2.18
2023-02-13T02:53:56.684Z,-2.18
2023-02-13T02:54:56.592Z,-2.15
2023-02-13T02:55:56.463Z,-2.19
2023-02-13T02:56:56.350Z,-2.18
2023-02-13T02:57:56.240Z,-2.14
2023-02-13T02:58:56.132Z,-2.16
2023-02-13T02:59:56.033Z,-2.24
2023-02-13T03:00:56.154Z,-2.18
2023-02-13T03:01:55.811Z,-2.22
2023-02-13T03:02:55.712Z,-2.24
2023-02-13T03:03:55.622Z,-2.22
2023-02-13T03:04:55.521Z,-2.29
2023-02-13T03:05:55.413Z,-2.30
2023-02-13T03:06:55.310Z,-2.22
2023-02-13T03:07:55.200Z,-2.29
2023-02-13T03:08:55.100Z,-2.34
2023-02-13T03:09:55.018Z,-2.41
2023-02-13T03:10:55.342Z,-2.34
2023-02-13T03:11:54.791Z,-2.38
2023-02-13T03:12:54.694Z,-2.38
2023-02-13T03:13:54.584Z,-2.40
2023-02-13T03:14:54.491Z,-2.34
2023-02-13T03:15:54.371Z,-2.41
2023-02-13T03:16:54.274Z,-2.35
2023-02-13T03:17:54.166Z,-2.41
2023-02-13T03:18:54.072Z,-2.41
2023-02-13T03:19:53.980Z,-2.43
2023-02-13T03:20:53.874Z,-2.41
2023-02-13T03:21:53.752Z,-2.45
2023-02-13T03:22:53.662Z,-2.43
2023-02-13T03:23:53.567Z,-2.48
2023-02-13T03:24:53.485Z,-2.48
2023-02-13T03:25:53.361Z,-2.37
2023-02-13T03:26:53.272Z,-2.43
2023-02-13T03:27:53.172Z,-2.48
2023-02-13T03:28:53.073Z,-2.49
2023-02-13T03:29:52.974Z,-2.48
2023-02-13T03:30:52.889Z,-2.58
2023-02-13T03:31:52.754Z,-2.56
2023-02-13T03:32:52.638Z,-2.58
2023-02-13T03:33:52.534Z,-2.59
2023-02-13T03:34:52.424Z,-2.59
2023-02-13T03:35:52.324Z,-2.63
2023-02-13T03:36:52.217Z,-2.58
2023-02-13T03:37:52.116Z,-2.59
2023-02-13T03:38:52.006Z,-2.63
2023-02-13T03:39:51.896Z,-2.64
2023-02-13T03:40:51.795Z,-2.73
2023-02-13T03:41:51.685Z,-2.76
2023-02-13T03:42:51.599Z,-2.76
2023-02-13T03:43:51.496Z,-2.82
2023-02-13T03:44:51.385Z,-2.84
2023-02-13T03:45:51.331Z,-2.87
2023-02-13T03:46:51.177Z,-2.88
2023-02-13T03:47:51.066Z,-2.95
2023-02-13T03:48:50.959Z,-2.98
2023-02-13T03:49:50.848Z,-2.92
2023-02-13T03:50:50.776Z,-3.06
2023-02-13T03:51:50.671Z,-2.94
2023-02-13T03:52:50.566Z,-3.05
2023-02-13T03:53:50.462Z,-3.05
2023-02-13T03:54:50.367Z,-3.02
2023-02-13T03:55:50.280Z,-3.01
2023-02-13T03:56:50.166Z,-3.02
2023-02-13T03:57:50.097Z,-2.95
2023-02-13T03:58:49.982Z,-2.95
2023-02-13T03:59:49.888Z,-2.92
2023-02-13T04:00:49.914Z,-2.90
2023-02-13T04:01:49.687Z,-2.85
2023-02-13T04:02:49.608Z,-2.74
2023-02-13T04:03:49.505Z,-2.79
2023-02-13T04:04:49.407Z,-2.77
2023-02-13T04:05:49.311Z,-2.74
2023-02-13T04:06:49.217Z,-2.73
2023-02-13T04:07:49.109Z,-2.70
2023-02-13T04:08:49.021Z,-2.70
2023-02-13T04:09:48.922Z,-2.73
2023-02-13T04:10:48.829Z,-2.74
2023-02-13T04:11:48.717Z,-2.70
2023-02-13T04:12:48.618Z,-2.63
2023-02-13T04:13:48.511Z,-2.61
2023-02-13T04:14:48.416Z,-2.69
2023-02-13T04:15:48.328Z,-2.58
2023-02-13T04:16:48.283Z,-2.54
2023-02-13T04:17:48.115Z,-2.55
2023-02-13T04:18:48.006Z,-2.49
2023-02-13T04:19:47.895Z,-2.46
2023-02-13T04:20:47.806Z,-2.49
2023-02-13T04:21:47.689Z,-2.51
2023-02-13T04:22:47.595Z,-2.51
2023-02-13T04:23:47.488Z,-2.41
2023-02-13T04:24:47.394Z,-2.51
2023-02-13T04:25:47.289Z,-2.45
2023-02-13T04:26:47.188Z,-2.40
2023-02-13T04:27:47.075Z,-2.43
2023-02-13T04:28:46.975Z,-2.40
2023-02-13T04:29:46.871Z,-2.38
2023-02-13T04:30:46.866Z,-2.30
2023-02-13T04:31:46.827Z,-2.26
2023-02-13T04:32:46.554Z,-2.26
2023-02-13T04:33:46.452Z,-2.22
2023-02-13T04:34:46.373Z,-2.29
2023-02-13T04:35:46.253Z,-2.24
2023-02-13T04:36:46.147Z,-2.18
2023-02-13T04:37:46.027Z,-2.11
2023-02-13T04:38:45.940Z,-2.09
2023-02-13T04:39:45.834Z,-2.08
2023-02-13T04:40:45.744Z,-2.03
2023-02-13T04:41:45.616Z,-2.01
2023-02-13T04:42:45.519Z,-2.00
2023-02-13T04:43:45.413Z,-2.01
2023-02-13T04:44:45.315Z,-1.98
2023-02-13T04:45:45.246Z,-2.01
2023-02-13T04:46:45.096Z,-2.00
2023-02-13T04:47:44.988Z,-1.94
2023-02-13T04:48:44.906Z,-2.00
2023-02-13T04:49:44.775Z,-1.98
2023-02-13T04:50:44.686Z,-1.96
2023-02-13T04:51:44.573Z,-1.97
2023-02-13T04:52:44.474Z,-1.94
2023-02-13T04:53:44.359Z,-1.86
2023-02-13T04:54:44.268Z,-1.93
2023-02-13T04:55:44.160Z,-1.90
2023-02-13T04:56:44.038Z,-1.91
2023-02-13T04:57:43.958Z,-1.90
2023-02-13T04:58:43.849Z,-1.91
2023-02-13T04:59:43.719Z,-1.86
2023-02-13T05:00:43.628Z,-1.93
2023-02-13T05:01:43.559Z,-1.85
2023-02-13T05:02:43.420Z,-1.83
2023-02-13T05:03:43.317Z,-1.73
2023-02-13T05:04:43.231Z,-1.79
2023-02-13T05:05:43.094Z,-1.82
2023-02-13T05:06:42.987Z,-1.79
2023-02-13T05:07:42.865Z,-1.80
2023-02-13T05:08:42.760Z,-1.75
2023-02-13T05:09:42.638Z,-1.78
2023-02-13T05:10:42.554Z,-1.82
2023-02-13T05:11:42.420Z,-1.76
2023-02-13T05:12:42.333Z,-1.78
2023-02-13T05:13:42.200Z,-1.78
2023-02-13T05:14:42.090Z,-1.73
2023-02-13T05:15:42.036Z,-1.80
2023-02-13T05:16:41.869Z,-1.75
2023-02-13T05:17:41.756Z,-1.75
2023-02-13T05:18:41.661Z,-1.75
2023-02-13T05:19:41.530Z,-1.72
2023-02-13T05:20:41.451Z,-1.75
2023-02-13T05:21:41.322Z,-1.79
2023-02-13T05:22:41.231Z,-1.82
2023-02-13T05:23:41.120Z,-1.73
2023-02-13T05:24:41.018Z,-1.72
2023-02-13T05:25:40.925Z,-1.79
2023-02-13T05:26:40.802Z,-1.72
2023-02-13T05:27:40.692Z,-1.75
2023-02-13T05:28:40.638Z,-1.72
2023-02-13T05:29:40.481Z,-1.75
2023-02-13T05:30:40.466Z,-1.70
2023-02-13T05:31:40.365Z,-1.76
2023-02-13T05:32:40.152Z,-1.79
2023-02-13T05:33:40.063Z,-1.76
2023-02-13T05:34:39.952Z,-1.78
2023-02-13T05:35:39.843Z,-1.76
2023-02-13T05:36:39.735Z,-1.76
2023-02-13T05:37:39.624Z,-1.73
2023-02-13T05:38:39.525Z,-1.73
2023-02-13T05:39:39.415Z,-1.75
2023-02-13T05:40:39.326Z,-1.75
2023-02-13T05:41:39.198Z,-1.75
2023-02-13T05:42:39.107Z,-1.75
2023-02-13T05:43:39.006Z,-1.75
2023-02-13T05:44:38.907Z,-1.75
2023-02-13T05:45:38.838Z,-1.69
2023-02-13T05:46:39.376Z,-1.70
2023-02-13T05:47:38.608Z,-1.75
2023-02-13T05:48:38.508Z,-1.75
2023-02-13T05:49:38.376Z,-1.75
2023-02-13T05:50:38.280Z,-1.70
2023-02-13T05:51:38.179Z,-1.67
2023-02-13T05:52:38.050Z,-1.70
2023-02-13T05:53:37.963Z,-1.70
2023-02-13T05:54:37.829Z,-1.67
2023-02-13T05:55:37.736Z,-1.69
2023-02-13T05:56:37.597Z,-1.69
2023-02-13T05:57:37.493Z,-1.70
2023-02-13T05:58:37.382Z,-1.67
2023-02-13T05:59:37.268Z,-1.65
2023-02-13T06:00:37.137Z,-1.65
2023-02-13T06:01:37.020Z,-1.69
2023-02-13T06:02:36.987Z,-1.67
2023-02-13T06:03:36.822Z,-1.69
2023-02-13T06:04:36.676Z,-1.62
2023-02-13T06:05:36.565Z,-1.62
2023-02-13T06:06:36.448Z,-1.51
2023-02-13T06:07:36.319Z,-1.57
2023-02-13T06:08:36.216Z,-1.59
2023-02-13T06:09:36.095Z,-1.55
2023-02-13T06:10:36.000Z,-1.57
2023-02-13T06:11:35.878Z,-1.57
2023-02-13T06:12:35.746Z,-1.59
2023-02-13T06:13:35.645Z,-1.52
2023-02-13T06:14:35.547Z,-1.52
2023-02-13T06:15:35.436Z,-1.54
2023-02-13T06:16:35.306Z,-1.46
2023-02-13T06:17:35.257Z,-1.47
2023-02-13T06:18:35.092Z,-1.54
2023-02-13T06:19:34.984Z,-1.52
2023-02-13T06:20:34.883Z,-1.51
2023-02-13T06:21:34.776Z,-1.49
2023-02-13T06:22:34.671Z,-1.46
2023-02-13T06:23:34.558Z,-1.41
2023-02-13T06:24:34.437Z,-1.44
2023-02-13T06:25:34.346Z,-1.44
2023-02-13T06:26:34.237Z,-1.41
2023-02-13T06:27:34.119Z,-1.41
2023-02-13T06:28:34.048Z,-1.49
2023-02-13T06:29:33.879Z,-1.46
2023-02-13T06:30:33.779Z,-1.39
2023-02-13T06:31:33.681Z,-1.37
2023-02-13T06:32:33.540Z,-1.36
2023-02-13T06:33:33.428Z,-1.36
2023-02-13T06:34:33.309Z,-1.36
2023-02-13T06:35:33.212Z,-1.31
2023-02-13T06:36:33.082Z,-1.33
2023-02-13T06:37:32.982Z,-1.39
2023-02-13T06:38:32.867Z,-1.34
2023-02-13T06:39:32.740Z,-1.37
2023-02-13T06:40:32.646Z,-1.37
2023-02-13T06:41:32.521Z,-1.29
2023-02-13T06:42:32.411Z,-1.36
2023-02-13T06:43:32.303Z,-1.25
2023-02-13T06:44:32.183Z,-1.28
2023-02-13T06:45:32.093Z,-1.23
2023-02-13T06:46:32.077Z,-1.18
2023-02-13T06:47:31.867Z,-1.19
2023-02-13T06:48:31.743Z,-1.16
2023-02-13T06:49:31.655Z,-1.16
2023-02-13T06:50:31.552Z,-1.19
2023-02-13T06:51:31.426Z,-1.11
2023-02-13T06:52:31.294Z,-1.18
2023-02-13T06:53:31.184Z,-1.22
2023-02-13T06:54:45.937Z,-1.16
2023-02-13T06:55:31.957Z,-1.11
2023-02-13T06:56:30.833Z,-1.18
2023-02-13T06:57:30.723Z,-1.13
2023-02-13T06:58:30.594Z,-1.07
2023-02-13T06:59:30.482Z,-1.10
2023-02-13T07:00:30.462Z,-1.08
2023-02-13T07:01:30.254Z,-1.07
2023-02-13T07:02:30.127Z,-1.05
2023-02-13T07:03:30.006Z,-1.08
2023-02-13T07:04:29.879Z,-1.03
2023-02-13T07:05:29.767Z,-1.00
2023-02-13T07:06:29.615Z,-1.01
2023-02-13T07:07:29.513Z,-0.97
2023-02-13T07:08:29.406Z,-0.97
2023-02-13T07:09:29.271Z,-0.92
2023-02-13T07:10:29.156Z,-0.95
2023-02-13T07:11:29.046Z,-0.92
2023-02-13T07:12:28.907Z,-0.95
2023-02-13T07:13:28.796Z,-0.95
2023-02-13T07:14:28.667Z,-0.98
2023-02-13T07:15:28.557Z,-0.97
2023-02-13T07:16:28.467Z,-0.86
2023-02-13T07:17:28.307Z,-0.84
2023-02-13T07:18:28.180Z,-0.86
2023-02-13T07:19:28.080Z,-0.76
2023-02-13T07:20:27.948Z,-0.75
2023-02-13T07:21:27.828Z,-0.70
2023-02-13T07:22:27.716Z,-0.70
2023-02-13T07:23:27.600Z,-0.71
2023-02-13T07:24:27.476Z,-0.64
2023-02-13T07:25:27.380Z,-0.66
2023-02-13T07:26:27.239Z,-0.63
2023-02-13T07:27:27.118Z,-0.66
2023-02-13T07:28:27.061Z,-0.61
2023-02-13T07:29:26.869Z,-0.58
2023-02-13T07:30:26.773Z,-0.55
2023-02-13T07:31:26.721Z,-0.53
2023-02-13T07:32:26.509Z,-0.55
2023-02-13T07:33:26.387Z,-0.46
2023-02-13T07:34:26.264Z,-0.43
2023-02-13T07:35:26.161Z,-0.43
2023-02-13T07:36:26.063Z,-0.39
2023-02-13T07:37:25.904Z,-0.39
2023-02-13T07:38:25.786Z,-0.35
2023-02-13T07:39:25.662Z,-0.34
2023-02-13T07:40:25.542Z,-0.27
2023-02-13T07:41:25.402Z,-0.25
2023-02-13T07:42:25.274Z,-0.25
2023-02-13T07:43:25.173Z,-0.16
2023-02-13T07:44:25.026Z,-0.17
2023-02-13T07:45:24.942Z,-0.17
2023-02-13T07:46:24.838Z,-0.17
2023-02-13T07:47:24.657Z,-0.14
2023-02-13T07:48:24.535Z,-0.07
2023-02-13T07:49:24.409Z,-0.06
2023-02-13T07:50:24.304Z,-0.07
2023-02-13T07:51:24.148Z,-0.06
2023-02-13T07:52:24.042Z,-0.04
2023-02-13T07:53:23.911Z,-0.06
2023-02-13T07:54:23.770Z,-0.09
2023-02-13T07:55:23.673Z,-0.04
2023-02-13T07:56:23.522Z,-0.03
2023-02-13T07:57:23.389Z,0.04
2023-02-13T07:58:23.275Z,0.05
2023-02-13T07:59:23.146Z,0.09
2023-02-13T08:00:23.000Z,0.08
2023-02-13T08:01:22.915Z,0.09
2023-02-13T08:02:22.740Z,0.09
2023-02-13T08:03:22.629Z,0.11
2023-02-13T08:04:23.874Z,0.11
2023-02-13T08:05:22.370Z,0.11
2023-02-13T08:06:22.222Z,0.15
2023-02-13T08:07:22.102Z,0.14
2023-02-13T08:08:21.972Z,0.17
2023-02-13T08:09:21.832Z,0.14
2023-02-13T08:10:21.712Z,0.17
2023-02-13T08:11:21.581Z,0.15
2023-02-13T08:12:21.433Z,0.09
2023-02-13T08:13:21.315Z,0.18
2023-02-13T08:14:21.190Z,0.23
2023-02-13T08:15:21.069Z,0.18
2023-02-13T08:16:20.993Z,0.17
2023-02-13T08:17:20.789Z,0.17
2023-02-13T08:18:20.650Z,0.22
2023-02-13T08:19:20.519Z,0.27
2023-02-13T08:20:20.400Z,0.29
2023-02-13T08:21:20.258Z,0.30
2023-02-13T08:22:20.128Z,0.40
2023-02-13T08:23:20.059Z,0.43
2023-02-13T08:24:19.865Z,0.44
2023-02-13T08:25:19.751Z,0.47
2023-02-13T08:26:19.609Z,0.48
2023-02-13T08:27:19.479Z,0.48
2023-02-13T08:28:19.408Z,0.55
2023-02-13T08:29:19.221Z,0.53
2023-02-13T08:30:19.097Z,0.56
2023-02-13T08:31:19.151Z,0.60
2023-02-13T08:32:18.926Z,0.66
2023-02-13T08:33:18.683Z,0.69
2023-02-13T08:34:18.541Z,0.73
2023-02-13T08:35:18.442Z,0.69
2023-02-13T08:36:18.303Z,0.76
2023-02-13T08:37:18.202Z,0.76
2023-02-13T08:38:18.050Z,0.80
2023-02-13T08:39:17.929Z,0.82
2023-02-13T08:40:17.809Z,0.81
2023-02-13T08:42:17.543Z,0.88
2023-02-13T08:43:17.429Z,0.90
2023-02-13T08:44:17.991Z,0.87
2023-02-13T08:45:17.159Z,0.91
2023-02-13T08:46:17.139Z,0.91
2023-02-13T08:47:16.881Z,0.98
2023-02-13T08:48:16.739Z,0.96
2023-02-13T08:49:16.603Z,1.02
2023-02-13T08:50:16.472Z,1.00
2023-02-13T08:51:16.342Z,1.02
2023-02-13T08:52:16.190Z,1.08
2023-02-13T08:53:16.060Z,1.08
2023-02-13T08:54:15.922Z,1.09
2023-02-13T08:55:15.806Z,1.13
2023-02-13T08:56:15.657Z,1.17
2023-02-13T08:57:15.524Z,1.18
2023-02-13T08:58:15.398Z,1.30
2023-02-13T08:59:15.261Z,1.30
2023-02-13T09:00:15.140Z,1.34
2023-02-13T09:01:15.076Z,1.36
2023-02-13T09:02:14.849Z,1.42
2023-02-13T09:03:14.845Z,1.42
2023-02-13T09:04:14.574Z,1.49
2023-02-13T09:05:14.443Z,1.52
2023-02-13T09:06:14.325Z,1.59
2023-02-13T09:07:14.172Z,1.62
2023-02-13T09:08:14.035Z,1.64
2023-02-13T09:09:13.897Z,1.69
2023-02-13T09:10:13.766Z,1.77
2023-02-13T09:11:13.651Z,1.81
2023-02-13T09:12:13.508Z,1.82
2023-02-13T09:13:13.358Z,1.85
2023-02-13T09:14:13.203Z,1.91
2023-02-13T09:15:13.104Z,1.97
2023-02-13T09:16:12.926Z,2.01
2023-02-13T09:17:12.789Z,2.07
2023-02-13T09:18:12.649Z,2.12
2023-02-13T09:19:12.519Z,2.14
2023-02-13T09:20:12.382Z,2.18
2023-02-13T09:21:12.242Z,2.22
2023-02-13T09:22:12.114Z,2.25
2023-02-13T09:23:11.971Z,2.28
2023-02-13T09:24:11.833Z,2.35
2023-02-13T09:25:11.759Z,2.39
2023-02-13T09:26:11.543Z,2.40
2023-02-13T09:27:11.403Z,2.51
2023-02-13T09:28:11.290Z,2.53
2023-02-13T09:29:11.124Z,2.55
2023-02-13T09:30:10.984Z,2.58
2023-02-13T09:31:10.960Z,2.63
2023-02-13T09:32:10.813Z,2.78
2023-02-13T09:33:10.563Z,2.81
2023-02-13T09:34:10.405Z,2.94
2023-02-13T09:35:10.294Z,2.97
2023-02-13T09:36:10.130Z,3.05
2023-02-13T09:37:09.988Z,3.15
2023-02-13T09:38:09.847Z,3.18
2023-02-13T09:39:09.716Z,3.27
2023-02-13T09:40:09.590Z,3.27
2023-02-13T09:41:09.433Z,3.30
2023-02-13T09:42:09.288Z,3.32
2023-02-13T09:43:09.163Z,3.37
2023-02-13T09:44:08.979Z,3.45
2023-02-13T09:45:08.860Z,3.49
2023-02-13T09:46:08.698Z,3.59
2023-02-13T09:47:08.522Z,3.67
2023-02-13T09:48:08.383Z,3.80
2023-02-13T09:49:08.231Z,3.78
2023-02-13T09:50:08.096Z,3.81
2023-02-13T09:51:07.930Z,3.81
2023-02-13T09:52:07.785Z,3.80
2023-02-13T09:53:07.641Z,3.78
2023-02-13T09:54:07.495Z,3.84
2023-02-13T09:55:07.329Z,3.94
2023-02-13T09:56:07.182Z,3.94
2023-02-13T09:57:07.015Z,3.98
2023-02-13T09:58:06.839Z,3.99
2023-02-13T09:59:06.691Z,4.09
2023-02-13T10:00:06.540Z,4.20
2023-02-13T10:01:06.439Z,4.28
2023-02-13T10:02:06.194Z,4.30
2023-02-13T10:03:06.061Z,4.35
2023-02-13T10:04:05.878Z,4.28
2023-02-13T10:05:05.809Z,4.30
2023-02-13T10:06:05.561Z,4.28
2023-02-13T10:07:05.411Z,4.31
2023-02-13T10:08:05.243Z,4.41
2023-02-13T10:09:05.089Z,4.45
2023-02-13T10:10:04.925Z,4.51
2023-02-13T10:11:04.766Z,4.61
2023-02-13T10:12:04.583Z,4.67
2023-02-13T10:13:04.442Z,4.72
2023-02-13T10:14:04.263Z,4.75
2023-02-13T10:15:04.113Z,4.85
2023-02-13T10:16:04.106Z,4.88
2023-02-13T10:17:03.765Z,4.89
2023-02-13T10:18:03.596Z,4.82
2023-02-13T10:19:03.425Z,4.79
2023-02-13T10:20:03.286Z,4.85
2023-02-13T10:21:03.102Z,4.82
2023-02-13T10:22:02.926Z,4.85
2023-02-13T10:23:02.764Z,4.82
2023-02-13T10:24:02.632Z,4.83
2023-02-13T10:25:02.456Z,4.88
2023-02-13T10:26:02.277Z,4.86
2023-02-13T10:27:02.117Z,4.86
2023-02-13T10:28:02.042Z,4.82
2023-02-13T10:29:01.797Z,4.85
2023-02-13T10:30:01.654Z,4.97
2023-02-13T10:31:01.548Z,4.98
2023-02-13T10:32:01.400Z,5.14
2023-02-13T10:33:01.140Z,5.24
2023-02-13T10:34:00.969Z,5.39
2023-02-13T10:35:00.807Z,5.37
2023-02-13T10:36:00.654Z,5.41
2023-02-13T10:37:00.481Z,5.48
2023-02-13T10:38:00.302Z,5.69
2023-02-13T10:39:00.137Z,5.77
2023-02-13T10:39:59.972Z,5.91
2023-02-13T10:40:59.772Z,6.00
2023-02-13T10:41:59.590Z,6.08
2023-02-13T10:42:59.412Z,6.02
2023-02-13T10:43:59.242Z,5.87
2023-02-13T10:44:59.082Z,5.94
2023-02-13T10:45:59.322Z,5.97
2023-02-13T10:46:58.703Z,6.03
2023-02-13T10:47:59.245Z,6.02
2023-02-13T10:48:58.368Z,6.05
2023-02-13T10:49:58.183Z,6.06
2023-02-13T10:50:57.984Z,5.98
2023-02-13T10:51:57.812Z,5.90
2023-02-13T10:52:57.624Z,5.88
2023-02-13T10:53:57.473Z,5.94
2023-02-13T10:54:57.283Z,5.90
2023-02-13T10:55:57.359Z,5.88
2023-02-13T10:56:56.914Z,5.87
2023-02-13T10:57:56.745Z,5.91
2023-02-13T10:58:56.556Z,5.87
2023-02-13T10:59:56.397Z,5.94
2023-02-13T11:00:56.243Z,6.12
2023-02-13T11:01:56.033Z,6.32
2023-02-13T11:02:55.833Z,6.38
2023-02-13T11:03:55.677Z,6.42
2023-02-13T11:04:55.474Z,6.47
2023-02-13T11:05:55.383Z,6.53
2023-02-13T11:06:55.104Z,6.52
2023-02-13T11:07:54.933Z,6.50
2023-02-13T11:08:54.743Z,6.50
2023-02-13T11:09:54.564Z,6.45
2023-02-13T11:10:54.373Z,6.49
2023-02-13T11:11:54.208Z,6.50
2023-02-13T11:12:54.014Z,6.50
2023-02-13T11:13:53.825Z,6.57
2023-02-13T11:14:53.643Z,6.55
2023-02-13T11:15:53.488Z,6.52
2023-02-13T11:16:53.283Z,6.50
2023-02-13T11:17:53.093Z,6.42
2023-02-13T11:18:52.930Z,6.49
2023-02-13T11:19:52.733Z,6.50
2023-02-13T11:20:52.537Z,6.53
2023-02-13T11:21:52.346Z,6.56
2023-02-13T11:22:52.160Z,6.47
2023-02-13T11:23:51.983Z,6.60
2023-02-13T11:24:51.798Z,6.50
2023-02-13T11:25:51.635Z,6.46
2023-02-13T11:26:51.439Z,6.40
2023-02-13T11:27:51.258Z,6.31
2023-02-13T11:28:51.142Z,6.28
2023-02-13T11:29:50.895Z,6.19
2023-02-13T11:30:50.899Z,6.19
2023-02-13T11:31:50.592Z,6.12
2023-02-13T11:32:50.346Z,6.15
2023-02-13T11:33:50.159Z,6.05
2023-02-13T11:34:49.967Z,6.00
2023-02-13T11:35:49.799Z,5.94
2023-02-13T11:36:49.588Z,5.95
2023-02-13T11:37:49.431Z,5.90
2023-02-13T11:38:49.239Z,5.91
2023-02-13T11:39:51.117Z,5.91
2023-02-13T11:40:48.882Z,5.88
2023-02-13T11:41:48.701Z,5.94
2023-02-13T11:42:48.529Z,5.95
2023-02-13T11:43:48.357Z,5.90
2023-02-13T11:44:48.159Z,5.94
2023-02-13T11:45:47.989Z,5.90
2023-02-13T11:46:47.926Z,5.93
2023-02-13T11:47:47.620Z,5.97
2023-02-13T11:48:47.432Z,6.02
2023-02-13T11:49:47.264Z,6.02
2023-02-13T11:50:47.081Z,5.95
2023-02-13T11:51:46.896Z,5.97
2023-02-13T11:52:46.702Z,6.05
2023-02-13T11:53:46.523Z,6.08
2023-02-13T11:54:46.343Z,6.09
2023-02-13T11:55:46.184Z,6.16
2023-02-13T11:57:03.156Z,6.18
2023-02-13T11:57:46.836Z,6.12
2023-02-13T11:58:45.751Z,6.21
2023-02-13T11:59:45.467Z,6.21
2023-02-13T12:00:45.309Z,6.18
2023-02-13T12:01:45.108Z,6.25
2023-02-13T12:02:45.007Z,6.31
2023-02-13T12:03:44.781Z,6.31
2023-02-13T12:04:44.564Z,6.30
2023-02-13T12:05:44.390Z,6.13
2023-02-13T12:06:44.223Z,6.11
2023-02-13T12:07:44.031Z,6.12
2023-02-13T12:08:43.859Z,6.03
2023-02-13T12:09:43.671Z,6.09
2023-02-13T12:10:43.505Z,6.08
2023-02-13T12:11:43.429Z,6.11
2023-02-13T12:12:43.129Z,6.09
2023-02-13T12:13:42.953Z,6.09
2023-02-13T12:14:42.787Z,6.08
2023-02-13T12:15:42.597Z,6.12
2023-02-13T12:16:42.467Z,6.08
2023-02-13T12:17:42.217Z,6.03
2023-02-13T12:18:42.042Z,6.05
2023-02-13T12:19:41.846Z,6.06
2023-02-13T12:20:41.675Z,6.13
2023-02-13T12:21:41.494Z,6.16
2023-02-13T12:22:41.306Z,6.31
2023-02-13T12:23:41.127Z,6.40
2023-02-13T12:24:40.937Z,6.37
2023-02-13T12:25:40.786Z,6.49
2023-02-13T12:26:40.595Z,6.45
2023-02-13T12:27:40.409Z,6.47
2023-02-13T12:28:40.244Z,6.47
2023-02-13T12:29:40.115Z,6.47
2023-02-13T12:30:39.900Z,6.55
2023-02-13T12:31:39.842Z,6.50
2023-02-13T12:32:39.520Z,6.55
2023-02-13T12:33:39.345Z,6.55
2023-02-13T12:34:39.165Z,6.47
2023-02-13T12:35:38.987Z,6.50
2023-02-13T12:36:38.804Z,6.49
2023-02-13T12:37:38.635Z,6.52
2023-02-13T12:38:38.438Z,6.53
2023-02-13T12:39:38.255Z,6.53
2023-02-13T12:40:38.078Z,6.46
2023-02-13T12:41:37.889Z,6.52
2023-02-13T12:42:37.688Z,6.55
2023-02-13T12:43:37.520Z,6.46
2023-02-13T12:44:37.329Z,6.32
2023-02-13T12:45:37.208Z,6.24
2023-02-13T12:46:39.727Z,6.16
2023-02-13T12:47:36.797Z,6.13
2023-02-13T12:48:36.623Z,6.06
2023-02-13T12:49:36.580Z,6.05
2023-02-13T12:50:36.280Z,6.05
2023-02-13T12:51:36.080Z,6.03
2023-02-13T12:52:35.909Z,6.02
2023-02-13T12:53:35.734Z,6.08
2023-02-13T12:54:35.551Z,6.09
2023-02-13T12:55:35.423Z,6.16
2023-02-13T12:56:35.192Z,6.16
2023-02-13T12:57:35.021Z,6.19
2023-02-13T12:58:34.846Z,6.16
2023-02-13T12:59:34.663Z,6.15
2023-02-13T13:00:34.496Z,6.15
2023-02-13T13:01:34.373Z,6.15